Details From UAAA - Almaty
To RPVP - Puerto Princesa
Flight Number -
Tags Generated
Created
Modified
Stats Distance 2,966 nm / 5,493 km
Max Altitude 0 ft / 0 m
Waypoints 3
Social Downloads 2
Likes 0
Share VATSIM

Download

Looking for another format? Having issues loading an existing format? Contact us
Advertisement - Login to hide

Notes

Generated

Route

UAAA PR RPVP

ID Type Via Altitude Latitude Longitude Leg Dist Tot Dist Heading (true) Name
O UAAA APT - 0 ft / 0 m 43.34096˚ 77.01807˚ - 0 nm - -
PR VOR - 0 ft / 0 m 9.74133˚ 118.75294˚ 2965 nm 2965 nm 120° / 140° PUERTO PRINCESA VOR-DME
O RPVP APT - 0 ft / 0 m 9.74263˚ 118.74689˚ 0 nm 2966 nm 282° / 282° -

Altitude Profile

Advertisement - Login to hide

Weather


0- 5 10 15 20 25 30 35+ Temperature / ° C

Clouds and Precipitation
Forecast for 2018-05-21 12:00 UTC. Updated 2 hours ago

Ground ~20,000 ft ~40,000 ft Winds

UAAA

Details ICAO UAAA (ALA)
Name Almaty Intl
Region Kazakhstan and Kyrgyzstan
Timezone Asia/Almaty (UTC+6.0)
Stats Elevation 2,234 ft / 681 m (AMSL)
Location 43.355235° 77.044570°
Runways 2
Magnetic Variation 5.181° E

METAR

UAAA 211330Z 16002MPS 9999 SCT050 BKN100 19/06 Q1019 R23L/CLRD65 NOSIG

Decode

TAF

TAF UAAA 211100Z 2112/2212 16005MPS 9999 BKN050CB BKN100 TX23/2209Z TN06/2201Z TEMPO 2112/2118 26005MPS 5000 FU BECMG 2203/2204 04005MPS PROB40 TEMPO 2206/2212 TS

Decode

Departure Runways

ID Width Length Bearing (true) Bearing (mag) Surface Threshold Offset Overrun Length
05L 200 ft / 61 m 14,778 ft / 4,504 m 55.73° 50.55° Concrete 0 ft / 0 m 325 ft / 99 m
05R 148 ft / 45 m 14,408 ft / 4,392 m 55.72° 50.54° Asphalt 0 ft / 0 m 226 ft / 69 m
23L 148 ft / 45 m 14,408 ft / 4,392 m 235.75° 230.57° Asphalt 0 ft / 0 m 226 ft / 69 m
23R 200 ft / 61 m 14,778 ft / 4,504 m 235.76° 230.58° Concrete 0 ft / 0 m 390 ft / 119 m

RPVP

Details ICAO RPVP (PPS)
Name PUERTO PRINCESA
Region Philippines
Timezone Asia/Manila (UTC+8.0)
Stats Elevation 71 ft / 22 m (AMSL)
Location 9.742119° 118.758730°
Runways 1
Magnetic Variation 1.196° W

METAR

RPVP 211200Z 25004KT 9999 VCTS SCT017CB OVC080 29/25 Q1009 RMK A2980 CB S-SW-W NW NE-E QDS

Decode

TAF

Not found

Destination Runways

ID Width Length Bearing (true) Bearing (mag) Surface Threshold Offset Overrun Length
09 148 ft / 45 m 8,526 ft / 2,599 m 92.52° 93.72° Concrete 0 ft / 0 m 560 ft / 171 m
27 148 ft / 45 m 8,526 ft / 2,599 m 272.52° 273.72° Concrete 0 ft / 0 m 574 ft / 175 m